sensor_id;sensor_type;location;lat;lon;timestamp;pressure;altitude;pressure_sealevel;temperature;humidity
63343;BME280;49465;57.664;39.686;2023-06-19T00:02:16;100856.47;;;12.66;44.54
63343;BME280;49465;57.664;39.686;2023-06-19T00:04:45;100862.72;;;12.78;44.63
63343;BME280;49465;57.664;39.686;2023-06-19T00:07:14;100854.97;;;12.62;44.01
63343;BME280;49465;57.664;39.686;2023-06-19T00:09:41;100865.69;;;12.59;44.54
63343;BME280;49465;57.664;39.686;2023-06-19T00:12:12;100859.63;;;12.72;44.19
63343;BME280;49465;57.664;39.686;2023-06-19T00:14:42;100858.03;;;12.69;44.60
63343;BME280;49465;57.664;39.686;2023-06-19T00:17:08;100849.47;;;12.53;44.89
63343;BME280;49465;57.664;39.686;2023-06-19T00:19:38;100858.38;;;12.50;44.59
63343;BME280;49465;57.664;39.686;2023-06-19T00:22:09;100855.94;;;12.47;44.41
63343;BME280;49465;57.664;39.686;2023-06-19T00:24:41;100856.13;;;12.44;44.64
63343;BME280;49465;57.664;39.686;2023-06-19T00:27:10;100859.81;;;12.41;44.31
63343;BME280;49465;57.664;39.686;2023-06-19T00:29:40;100860.94;;;12.37;44.53
63343;BME280;49465;57.664;39.686;2023-06-19T00:32:11;100865.50;;;12.48;44.99
63343;BME280;49465;57.664;39.686;2023-06-19T00:34:42;100872.75;;;12.44;44.50
63343;BME280;49465;57.664;39.686;2023-06-19T00:37:17;100866.16;;;12.52;43.70
63343;BME280;49465;57.664;39.686;2023-06-19T00:39:43;100872.97;;;12.27;44.27
63343;BME280;49465;57.664;39.686;2023-06-19T00:42:18;100872.47;;;12.35;44.46
63343;BME280;49465;57.664;39.686;2023-06-19T00:44:51;100868.75;;;12.39;43.90
63343;BME280;49465;57.664;39.686;2023-06-19T00:47:21;100869.97;;;12.33;44.01
63343;BME280;49465;57.664;39.686;2023-06-19T00:49:53;100871.72;;;12.33;44.62
63343;BME280;49465;57.664;39.686;2023-06-19T00:52:25;100879.56;;;12.20;45.16
63343;BME280;49465;57.664;39.686;2023-06-19T00:54:54;100878.06;;;12.16;45.21
63343;BME280;49465;57.664;39.686;2023-06-19T00:57:23;100872.97;;;11.98;44.68
63343;BME280;49465;57.664;39.686;2023-06-19T01:00:02;100885.25;;;12.26;43.83
63343;BME280;49465;57.664;39.686;2023-06-19T01:02:37;100885.56;;;12.07;45.01
63343;BME280;49465;57.664;39.686;2023-06-19T01:05:15;100881.81;;;12.12;44.74
63343;BME280;49465;57.664;39.686;2023-06-19T01:07:46;100881.69;;;11.99;45.48
63343;BME280;49465;57.664;39.686;2023-06-19T01:10:26;100882.38;;;12.02;45.54
63343;BME280;49465;57.664;39.686;2023-06-19T01:15:43;100874.34;;;11.75;45.63
63343;BME280;49465;57.664;39.686;2023-06-19T01:18:14;100880.84;;;11.84;45.30
63343;BME280;49465;57.664;39.686;2023-06-19T01:20:46;100874.88;;;11.66;45.42
63343;BME280;49465;57.664;39.686;2023-06-19T01:23:13;100882.94;;;11.63;45.78
63343;BME280;49465;57.664;39.686;2023-06-19T01:25:39;100882.19;;;11.61;45.56
63343;BME280;49465;57.664;39.686;2023-06-19T01:28:10;100883.50;;;11.68;46.80
63343;BME280;49465;57.664;39.686;2023-06-19T01:30:43;100876.88;;;11.77;46.01
63343;BME280;49465;57.664;39.686;2023-06-19T01:33:25;100875.59;;;11.84;46.44
63343;BME280;49465;57.664;39.686;2023-06-19T01:35:55;100882.94;;;11.63;46.21
63343;BME280;49465;57.664;39.686;2023-06-19T01:38:29;100882.97;;;11.77;46.26
63343;BME280;49465;57.664;39.686;2023-06-19T01:41:03;100885.03;;;11.72;46.44
63343;BME280;49465;57.664;39.686;2023-06-19T01:43:33;100883.81;;;11.78;46.72
63343;BME280;49465;57.664;39.686;2023-06-19T01:45:59;100885.50;;;11.64;46.04
63343;BME280;49465;57.664;39.686;2023-06-19T01:48:37;100887.91;;;11.98;46.30
63343;BME280;49465;57.664;39.686;2023-06-19T01:51:19;100893.63;;;12.04;45.30
63343;BME280;49465;57.664;39.686;2023-06-19T01:53:52;100888.22;;;11.77;46.39
63343;BME280;49465;57.664;39.686;2023-06-19T01:56:23;100885.81;;;11.88;47.69
63343;BME280;49465;57.664;39.686;2023-06-19T01:58:53;100891.59;;;11.79;46.77
63343;BME280;49465;57.664;39.686;2023-06-19T02:01:24;100885.53;;;11.93;47.86
63343;BME280;49465;57.664;39.686;2023-06-19T02:03:56;100888.84;;;11.97;47.54
63343;BME280;49465;57.664;39.686;2023-06-19T02:06:27;100891.28;;;12.00;47.87
63343;BME280;49465;57.664;39.686;2023-06-19T02:09:00;100889.56;;;12.13;47.47
63343;BME280;49465;57.664;39.686;2023-06-19T02:11:30;100891.84;;;12.05;47.98
63343;BME280;49465;57.664;39.686;2023-06-19T02:14:05;100883.78;;;12.08;47.62
63343;BME280;49465;57.664;39.686;2023-06-19T02:16:39;100887.06;;;12.12;47.97
63343;BME280;49465;57.664;39.686;2023-06-19T02:19:14;100880.78;;;12.14;48.27
63343;BME280;49465;57.664;39.686;2023-06-19T02:21:48;100883.97;;;12.19;47.80
63343;BME280;49465;57.664;39.686;2023-06-19T02:24:20;100881.88;;;12.24;47.64
63343;BME280;49465;57.664;39.686;2023-06-19T02:26:49;100876.41;;;13.11;42.29
63343;BME280;49465;57.664;39.686;2023-06-19T02:29:19;100886.56;;;12.48;47.44
63343;BME280;49465;57.664;39.686;2023-06-19T02:31:51;100878.28;;;12.54;47.20
63343;BME280;49465;57.664;39.686;2023-06-19T02:34:25;100872.47;;;12.49;47.79
63343;BME280;49465;57.664;39.686;2023-06-19T02:36:55;100872.09;;;12.55;48.37
63343;BME280;49465;57.664;39.686;2023-06-19T02:39:32;100867.81;;;12.67;48.19
63343;BME280;49465;57.664;39.686;2023-06-19T02:41:58;100865.13;;;12.54;48.35
63343;BME280;49465;57.664;39.686;2023-06-19T02:44:33;100872.19;;;12.81;48.76
63343;BME280;49465;57.664;39.686;2023-06-19T02:47:09;100871.63;;;12.90;48.73
63343;BME280;49465;57.664;39.686;2023-06-19T02:49:41;100871.72;;;13.69;43.14
63343;BME280;49465;57.664;39.686;2023-06-19T02:52:13;100872.53;;;13.16;48.36
63343;BME280;49465;57.664;39.686;2023-06-19T02:54:45;100873.81;;;13.23;47.29
63343;BME280;49465;57.664;39.686;2023-06-19T02:57:14;100869.59;;;13.21;48.12
63343;BME280;49465;57.664;39.686;2023-06-19T02:59:46;100871.03;;;13.39;48.61
63343;BME280;49465;57.664;39.686;2023-06-19T03:02:18;100867.94;;;13.33;47.79
63343;BME280;49465;57.664;39.686;2023-06-19T03:04:49;100868.22;;;13.55;48.04
63343;BME280;49465;57.664;39.686;2023-06-19T03:07:21;100873.09;;;13.74;48.46
63343;BME280;49465;57.664;39.686;2023-06-19T03:09:50;100868.34;;;13.67;47.80
63343;BME280;49465;57.664;39.686;2023-06-19T03:12:21;100868.44;;;13.91;48.60
63343;BME280;49465;57.664;39.686;2023-06-19T03:14:50;100863.91;;;13.93;48.24
63343;BME280;49465;57.664;39.686;2023-06-19T03:17:20;100867.28;;;14.08;47.58
63343;BME280;49465;57.664;39.686;2023-06-19T03:19:49;100869.13;;;14.31;48.31
63343;BME280;49465;57.664;39.686;2023-06-19T03:22:19;100869.00;;;14.33;48.33
63343;BME280;49465;57.664;39.686;2023-06-19T03:24:48;100869.94;;;14.57;47.81
63343;BME280;49465;57.664;39.686;2023-06-19T03:27:17;100869.66;;;14.73;47.17
63343;BME280;49465;57.664;39.686;2023-06-19T03:29:47;100863.09;;;14.79;47.77
63343;BME280;49465;57.664;39.686;2023-06-19T03:32:19;100860.13;;;15.08;46.42
63343;BME280;49465;57.664;39.686;2023-06-19T03:34:49;100865.72;;;15.27;45.83
63343;BME280;49465;57.664;39.686;2023-06-19T03:37:21;100866.00;;;15.47;46.78
63343;BME280;49465;57.664;39.686;2023-06-19T03:39:53;100870.59;;;15.67;45.47
63343;BME280;49465;57.664;39.686;2023-06-19T03:42:27;100868.50;;;15.95;45.97
63343;BME280;49465;57.664;39.686;2023-06-19T03:45:00;100866.38;;;16.11;45.17
63343;BME280;49465;57.664;39.686;2023-06-19T03:47:29;100862.97;;;16.20;44.64
63343;BME280;49465;57.664;39.686;2023-06-19T03:50:03;100858.00;;;16.50;44.22
63343;BME280;49465;57.664;39.686;2023-06-19T03:52:37;100860.22;;;16.77;43.65
63343;BME280;49465;57.664;39.686;2023-06-19T03:55:07;100857.34;;;16.80;44.14
63343;BME280;49465;57.664;39.686;2023-06-19T03:57:38;100852.34;;;17.09;43.13
63343;BME280;49465;57.664;39.686;2023-06-19T04:00:11;100846.66;;;17.35;42.60
63343;BME280;49465;57.664;39.686;2023-06-19T04:02:42;100849.22;;;17.46;42.67
63343;BME280;49465;57.664;39.686;2023-06-19T04:05:17;100847.56;;;17.66;42.51
63343;BME280;49465;57.664;39.686;2023-06-19T04:07:51;100840.34;;;17.78;42.21
63343;BME280;49465;57.664;39.686;2023-06-19T04:10:20;100844.53;;;17.81;42.42
63343;BME280;49465;57.664;39.686;2023-06-19T04:12:56;100846.16;;;18.24;41.82
63343;BME280;49465;57.664;39.686;2023-06-19T04:15:27;100844.78;;;18.29;42.36
63343;BME280;49465;57.664;39.686;2023-06-19T04:18:02;100844.28;;;18.55;41.95
63343;BME280;49465;57.664;39.686;2023-06-19T04:20:29;100835.88;;;18.60;41.84
63343;BME280;49465;57.664;39.686;2023-06-19T04:23:05;100838.47;;;18.90;41.50
63343;BME280;49465;57.664;39.686;2023-06-19T04:25:35;100835.81;;;19.10;41.04
63343;BME280;49465;57.664;39.686;2023-06-19T04:28:04;100844.72;;;19.28;41.08
63343;BME280;49465;57.664;39.686;2023-06-19T04:30:33;100842.06;;;19.38;40.90
63343;BME280;49465;57.664;39.686;2023-06-19T04:33:10;100838.63;;;19.65;39.59
63343;BME280;49465;57.664;39.686;2023-06-19T04:35:39;100830.81;;;19.73;39.24
63343;BME280;49465;57.664;39.686;2023-06-19T04:38:11;100832.53;;;20.02;38.82
63343;BME280;49465;57.664;39.686;2023-06-19T04:40:46;100837.75;;;20.22;37.76
63343;BME280;49465;57.664;39.686;2023-06-19T04:43:18;100828.03;;;20.30;37.34
63343;BME280;49465;57.664;39.686;2023-06-19T04:45:49;100833.84;;;20.44;36.00
63343;BME280;49465;57.664;39.686;2023-06-19T04:48:21;100829.34;;;20.72;36.06
63343;BME280;49465;57.664;39.686;2023-06-19T04:50:55;100820.59;;;20.80;34.74
63343;BME280;49465;57.664;39.686;2023-06-19T04:53:29;100829.09;;;20.83;34.78
63343;BME280;49465;57.664;39.686;2023-06-19T04:55:57;100819.13;;;20.85;34.84
63343;BME280;49465;57.664;39.686;2023-06-19T04:58:28;100826.94;;;21.05;34.97
63343;BME280;49465;57.664;39.686;2023-06-19T05:01:00;100825.31;;;21.30;34.66
63343;BME280;49465;57.664;39.686;2023-06-19T05:03:31;100824.53;;;21.38;34.44
63343;BME280;49465;57.664;39.686;2023-06-19T05:06:04;100820.72;;;21.58;33.80
63343;BME280;49465;57.664;39.686;2023-06-19T05:08:40;100818.63;;;21.70;34.38
63343;BME280;49465;57.664;39.686;2023-06-19T05:11:10;100825.66;;;21.79;33.73
63343;BME280;49465;57.664;39.686;2023-06-19T05:13:39;100821.72;;;21.91;33.19
63343;BME280;49465;57.664;39.686;2023-06-19T05:16:11;100829.13;;;22.06;32.80
63343;BME280;49465;57.664;39.686;2023-06-19T05:18:46;100811.81;;;22.18;33.52
63343;BME280;49465;57.664;39.686;2023-06-19T05:21:20;100822.41;;;22.36;32.34
63343;BME280;49465;57.664;39.686;2023-06-19T05:23:52;100817.56;;;22.31;32.57
63343;BME280;49465;57.664;39.686;2023-06-19T05:26:32;100814.97;;;22.56;33.14
63343;BME280;49465;57.664;39.686;2023-06-19T05:29:02;100822.81;;;22.66;32.59
63343;BME280;49465;57.664;39.686;2023-06-19T05:31:34;100821.47;;;22.70;31.98
63343;BME280;49465;57.664;39.686;2023-06-19T05:34:01;100813.28;;;22.63;32.55
63343;BME280;49465;57.664;39.686;2023-06-19T05:36:27;100818.31;;;22.66;32.15
63343;BME280;49465;57.664;39.686;2023-06-19T05:38:57;100823.50;;;22.84;31.79
63343;BME280;49465;57.664;39.686;2023-06-19T05:41:26;100822.00;;;22.98;31.90
63343;BME280;49465;57.664;39.686;2023-06-19T05:43:55;100815.00;;;23.14;31.75
63343;BME280;49465;57.664;39.686;2023-06-19T05:46:32;100816.97;;;23.36;31.51
63343;BME280;49465;57.664;39.686;2023-06-19T05:49:01;100815.31;;;23.43;31.26
63343;BME280;49465;57.664;39.686;2023-06-19T05:51:30;100816.44;;;23.57;31.45
63343;BME280;49465;57.664;39.686;2023-06-19T05:54:02;100814.19;;;23.77;29.93
63343;BME280;49465;57.664;39.686;2023-06-19T05:56:33;100812.22;;;23.79;30.33
63343;BME280;49465;57.664;39.686;2023-06-19T05:59:00;100817.06;;;23.84;30.49
63343;BME280;49465;57.664;39.686;2023-06-19T06:01:35;100815.63;;;24.04;29.64
63343;BME280;49465;57.664;39.686;2023-06-19T06:04:07;100809.72;;;24.17;30.02
63343;BME280;49465;57.664;39.686;2023-06-19T06:06:36;100806.13;;;24.33;30.22
63343;BME280;49465;57.664;39.686;2023-06-19T06:09:08;100803.41;;;24.41;30.08
63343;BME280;49465;57.664;39.686;2023-06-19T06:11:40;100810.59;;;24.72;29.87
63343;BME280;49465;57.664;39.686;2023-06-19T06:14:16;100815.59;;;24.98;29.74
63343;BME280;49465;57.664;39.686;2023-06-19T06:16:45;100810.44;;;25.12;28.56
63343;BME280;49465;57.664;39.686;2023-06-19T06:19:17;100803.47;;;25.25;28.73
63343;BME280;49465;57.664;39.686;2023-06-19T06:21:49;100801.34;;;25.36;28.41
63343;BME280;49465;57.664;39.686;2023-06-19T06:24:17;100798.31;;;25.54;28.41
63343;BME280;49465;57.664;39.686;2023-06-19T06:26:44;100797.09;;;25.71;28.58
63343;BME280;49465;57.664;39.686;2023-06-19T06:29:18;100799.59;;;26.02;27.16
63343;BME280;49465;57.664;39.686;2023-06-19T06:31:50;100799.19;;;26.20;28.37
63343;BME280;49465;57.664;39.686;2023-06-19T06:34:23;100798.88;;;26.30;27.64
63343;BME280;49465;57.664;39.686;2023-06-19T06:36:54;100789.97;;;26.44;27.16
63343;BME280;49465;57.664;39.686;2023-06-19T06:39:24;100781.78;;;26.53;27.26
63343;BME280;49465;57.664;39.686;2023-06-19T06:41:53;100786.88;;;26.62;26.22
63343;BME280;49465;57.664;39.686;2023-06-19T06:44:26;100791.00;;;26.87;25.87
63343;BME280;49465;57.664;39.686;2023-06-19T06:46:55;100785.44;;;26.88;25.34
63343;BME280;49465;57.664;39.686;2023-06-19T06:49:21;100781.38;;;26.99;25.63
63343;BME280;49465;57.664;39.686;2023-06-19T06:51:54;100788.06;;;27.31;23.97
